createdAt,value
2022-09-07T00:01:07.606Z,100.00
2022-09-07T00:03:35.853Z,100.00
2022-09-07T00:06:09.804Z,100.00
2022-09-07T00:08:40.401Z,100.00
2022-09-07T00:11:13.699Z,100.00
2022-09-07T00:13:43.018Z,100.00
2022-09-07T00:16:13.792Z,100.00
2022-09-07T00:18:45.778Z,100.00
2022-09-07T00:21:15.982Z,100.00
2022-09-07T00:23:44.551Z,100.00
2022-09-07T00:26:18.303Z,100.00
2022-09-07T00:28:46.493Z,100.00
2022-09-07T00:31:20.129Z,100.00
2022-09-07T00:33:49.422Z,100.00
2022-09-07T00:36:18.748Z,100.00
2022-09-07T00:38:46.977Z,100.00
2022-09-07T00:41:16.381Z,100.00
2022-09-07T00:43:56.625Z,100.00
2022-09-07T00:46:26.885Z,100.00
2022-09-07T00:49:08.490Z,100.00
2022-09-07T00:51:46.438Z,100.00
2022-09-07T00:54:28.802Z,100.00
2022-09-07T00:56:56.670Z,100.00
2022-09-07T00:59:32.530Z,100.00
2022-09-07T01:02:01.584Z,100.00
2022-09-07T01:04:31.160Z,100.00
2022-09-07T01:07:00.396Z,100.00
2022-09-07T01:09:29.171Z,100.00
2022-09-07T01:12:00.680Z,100.00
2022-09-07T01:14:32.117Z,100.00
2022-09-07T01:17:05.013Z,100.00
2022-09-07T01:20:00.620Z,100.00
2022-09-07T01:23:05.618Z,100.00
2022-09-07T01:25:45.183Z,100.00
2022-09-07T01:28:29.382Z,100.00
2022-09-07T01:31:15.965Z,100.00
2022-09-07T01:33:47.219Z,100.00
2022-09-07T01:36:42.435Z,100.00
2022-09-07T01:39:10.204Z,100.00
2022-09-07T01:41:54.916Z,100.00
2022-09-07T01:44:36.019Z,100.00
2022-09-07T01:47:21.718Z,100.00
2022-09-07T01:50:12.212Z,100.00
2022-09-07T01:52:54.262Z,100.00
2022-09-07T01:55:34.087Z,100.00
2022-09-07T01:58:15.081Z,100.00
2022-09-07T02:00:49.413Z,100.00
2022-09-07T02:03:21.950Z,100.00
2022-09-07T02:06:11.873Z,100.00
2022-09-07T02:08:49.504Z,100.00
2022-09-07T02:11:21.809Z,100.00
2022-09-07T02:13:49.504Z,100.00
2022-09-07T02:16:24.136Z,100.00
2022-09-07T02:18:57.128Z,100.00
2022-09-07T02:21:39.978Z,100.00
2022-09-07T02:24:15.562Z,100.00
2022-09-07T02:26:48.188Z,100.00
2022-09-07T02:29:16.077Z,100.00
2022-09-07T02:31:43.822Z,100.00
2022-09-07T02:34:11.592Z,100.00
2022-09-07T02:36:46.109Z,100.00
2022-09-07T02:39:14.004Z,100.00
2022-09-07T02:41:43.717Z,100.00
2022-09-07T02:44:20.232Z,100.00
2022-09-07T02:47:06.123Z,100.00
2022-09-07T02:49:44.524Z,100.00
2022-09-07T02:52:41.730Z,100.00
2022-09-07T02:55:21.261Z,100.00
2022-09-07T02:57:54.193Z,100.00
2022-09-07T03:00:28.550Z,100.00
2022-09-07T03:03:14.762Z,100.00
2022-09-07T03:05:49.896Z,100.00
2022-09-07T03:08:34.560Z,100.00
2022-09-07T03:11:04.937Z,100.00
2022-09-07T03:13:33.126Z,100.00
2022-09-07T03:16:00.911Z,100.00
2022-09-07T03:18:29.197Z,100.00
2022-09-07T03:20:57.242Z,100.00
2022-09-07T03:23:25.084Z,100.00
2022-09-07T03:25:52.887Z,100.00
2022-09-07T03:28:20.515Z,100.00
2022-09-07T03:30:48.596Z,100.00
2022-09-07T03:33:17.041Z,100.00
2022-09-07T03:35:46.587Z,100.00
2022-09-07T03:38:14.364Z,100.00
2022-09-07T03:40:41.936Z,100.00
2022-09-07T03:43:09.712Z,100.00
2022-09-07T03:45:38.105Z,100.00
2022-09-07T03:48:05.885Z,100.00
2022-09-07T03:50:33.528Z,100.00
2022-09-07T03:53:01.306Z,100.00
2022-09-07T03:55:29.085Z,100.00
2022-09-07T03:57:57.157Z,100.00
2022-09-07T04:00:25.233Z,100.00
2022-09-07T04:02:52.960Z,100.00
2022-09-07T04:05:20.619Z,100.00
2022-09-07T04:07:48.829Z,100.00
2022-09-07T04:10:16.546Z,100.00
2022-09-07T04:12:45.417Z,100.00
2022-09-07T04:15:13.876Z,100.00
2022-09-07T04:17:41.497Z,100.00
2022-09-07T04:20:10.051Z,100.00
2022-09-07T04:22:37.827Z,100.00
2022-09-07T04:25:05.769Z,100.00
2022-09-07T04:27:35.065Z,100.00
2022-09-07T04:30:02.864Z,100.00
2022-09-07T04:32:30.544Z,100.00
2022-09-07T04:34:58.197Z,100.00
2022-09-07T04:37:26.240Z,100.00
2022-09-07T04:39:54.044Z,100.00
2022-09-07T04:42:22.000Z,100.00
2022-09-07T04:44:50.429Z,100.00
2022-09-07T04:47:18.091Z,100.00
2022-09-07T04:49:45.878Z,100.00
2022-09-07T04:52:13.520Z,100.00
2022-09-07T04:54:42.721Z,100.00
2022-09-07T04:57:11.712Z,100.00
2022-09-07T04:59:39.327Z,100.00
2022-09-07T05:02:07.151Z,100.00
2022-09-07T05:04:36.012Z,100.00
2022-09-07T05:07:04.060Z,100.00
2022-09-07T05:09:31.879Z,100.00
2022-09-07T05:12:00.972Z,100.00
2022-09-07T05:14:28.884Z,100.00
2022-09-07T05:16:57.228Z,100.00
2022-09-07T05:19:24.950Z,100.00
2022-09-07T05:21:52.616Z,100.00
2022-09-07T05:24:20.309Z,100.00
2022-09-07T05:26:48.246Z,100.00
2022-09-07T05:32:03.509Z,100.00
2022-09-07T05:34:32.389Z,100.00
2022-09-07T05:37:01.657Z,100.00
2022-09-07T05:39:29.737Z,100.00
2022-09-07T05:41:57.459Z,100.00
2022-09-07T05:47:14.479Z,100.00
2022-09-07T05:49:42.314Z,100.00
2022-09-07T05:52:10.460Z,100.00
2022-09-07T05:54:39.348Z,100.00
2022-09-07T05:57:07.513Z,100.00
2022-09-07T05:59:35.702Z,100.00
2022-09-07T06:02:04.644Z,100.00
2022-09-07T06:04:32.767Z,100.00
2022-09-07T06:12:37.217Z,100.00
2022-09-07T06:15:06.027Z,100.00
2022-09-07T06:17:34.475Z,100.00
2022-09-07T06:20:02.934Z,100.00
2022-09-07T06:22:31.405Z,100.00
2022-09-07T06:24:59.424Z,100.00
2022-09-07T06:27:28.117Z,100.00
2022-09-07T06:29:56.532Z,100.00
2022-09-07T06:35:14.952Z,100.00
2022-09-07T06:37:54.957Z,100.00
2022-09-07T06:42:00.067Z,100.00
2022-09-07T06:50:27.960Z,100.00
2022-09-07T06:55:44.959Z,100.00
2022-09-07T06:58:12.877Z,100.00
2022-09-07T07:00:40.798Z,100.00
2022-09-07T07:03:08.913Z,99.16
2022-09-07T07:05:36.972Z,97.06
2022-09-07T07:08:05.123Z,96.94
2022-09-07T07:10:38.114Z,96.88
2022-09-07T07:13:06.975Z,97.39
2022-09-07T07:15:35.216Z,95.44
2022-09-07T07:18:19.788Z,93.07
2022-09-07T07:20:49.709Z,91.43
2022-09-07T07:23:17.353Z,91.42
2022-09-07T07:25:44.919Z,89.90
2022-09-07T07:31:07.332Z,87.07
2022-09-07T07:33:38.984Z,85.07
2022-09-07T07:36:16.839Z,86.41
2022-09-07T07:39:03.263Z,84.75
2022-09-07T07:44:20.630Z,82.79
2022-09-07T07:46:50.326Z,80.13
2022-09-07T07:49:20.353Z,79.55
2022-09-07T07:54:39.472Z,76.99
2022-09-07T07:57:07.227Z,76.91
2022-09-07T07:59:35.474Z,77.85
2022-09-07T08:02:05.281Z,75.95
2022-09-07T08:04:34.450Z,75.31
2022-09-07T08:07:08.647Z,75.84
2022-09-07T08:09:42.740Z,76.26
2022-09-07T08:12:13.111Z,74.03
2022-09-07T08:14:42.659Z,73.12
2022-09-07T08:17:12.458Z,72.29
2022-09-07T08:19:40.179Z,72.64
2022-09-07T08:22:09.136Z,73.54
2022-09-07T08:24:36.804Z,72.63
2022-09-07T08:27:04.688Z,71.39
2022-09-07T08:29:35.023Z,69.05
2022-09-07T08:32:11.728Z,69.76
2022-09-07T08:34:59.085Z,69.40
2022-09-07T08:37:26.877Z,68.65
2022-09-07T08:39:54.518Z,66.73
2022-09-07T08:42:45.199Z,64.45
2022-09-07T08:45:38.868Z,64.50
2022-09-07T08:48:06.528Z,64.84
2022-09-07T08:50:51.892Z,66.17
2022-09-07T08:53:22.159Z,64.69
2022-09-07T08:56:14.263Z,64.63
2022-09-07T08:58:50.193Z,65.17
2022-09-07T09:01:31.940Z,62.66
2022-09-07T09:04:16.927Z,64.21
2022-09-07T09:07:16.634Z,62.89
2022-09-07T09:10:02.794Z,62.85
2022-09-07T09:12:55.287Z,62.25
2022-09-07T09:15:52.116Z,61.66
2022-09-07T09:18:44.012Z,60.18
2022-09-07T09:21:19.145Z,57.09
2022-09-07T09:23:53.488Z,57.04
2022-09-07T09:26:34.261Z,56.75
2022-09-07T09:29:15.928Z,57.62
2022-09-07T09:31:43.796Z,58.08
2022-09-07T09:34:18.101Z,58.43
2022-09-07T09:36:48.967Z,58.23
2022-09-07T09:39:28.794Z,58.32
2022-09-07T09:41:58.473Z,59.68
2022-09-07T09:44:33.153Z,59.78
2022-09-07T09:49:51.511Z,58.91
2022-09-07T09:52:31.850Z,57.44
2022-09-07T09:55:30.152Z,59.54
2022-09-07T10:04:01.193Z,54.20
2022-09-07T10:06:32.186Z,54.86
2022-09-07T10:09:02.272Z,55.59
2022-09-07T10:14:46.536Z,55.28
2022-09-07T10:17:38.924Z,54.41
2022-09-07T10:20:21.684Z,54.12
2022-09-07T10:22:52.332Z,51.75
2022-09-07T10:25:28.831Z,51.60
2022-09-07T10:28:14.454Z,49.37
2022-09-07T10:31:00.281Z,47.50
2022-09-07T10:33:43.610Z,48.04
2022-09-07T10:36:19.447Z,48.75
2022-09-07T10:39:08.593Z,47.87
2022-09-07T10:41:53.210Z,48.66
2022-09-07T10:44:51.404Z,49.69
2022-09-07T10:47:46.870Z,50.34
2022-09-07T10:50:31.003Z,49.98
2022-09-07T10:53:13.408Z,50.25
2022-09-07T10:56:05.621Z,50.29
2022-09-07T11:01:25.353Z,51.44
2022-09-07T11:04:20.422Z,51.78
2022-09-07T11:06:51.005Z,52.38
2022-09-07T11:09:19.327Z,52.85
2022-09-07T11:12:13.816Z,52.42
2022-09-07T11:14:48.232Z,53.61
2022-09-07T11:17:21.155Z,53.67
2022-09-07T11:20:14.145Z,52.19
2022-09-07T11:22:46.042Z,51.13
2022-09-07T11:25:53.064Z,51.24
2022-09-07T11:28:23.155Z,51.38
2022-09-07T11:31:00.744Z,52.14
2022-09-07T11:34:23.806Z,50.00
2022-09-07T11:39:35.713Z,50.96
2022-09-07T11:45:12.520Z,51.21
2022-09-07T11:47:40.928Z,49.73
2022-09-07T11:50:21.839Z,48.01
2022-09-07T11:52:54.267Z,46.30
2022-09-07T11:55:36.060Z,47.26
2022-09-07T11:58:09.311Z,47.43
2022-09-07T12:00:47.344Z,46.71
2022-09-07T12:03:39.409Z,46.53
2022-09-07T12:06:28.844Z,47.02
2022-09-07T12:09:02.440Z,47.62
2022-09-07T12:11:34.698Z,48.84
2022-09-07T12:14:43.645Z,49.69
2022-09-07T12:17:35.598Z,49.19
2022-09-07T12:20:09.424Z,49.04
2022-09-07T12:22:38.032Z,46.55
2022-09-07T12:25:11.503Z,45.91
2022-09-07T12:27:39.902Z,46.90
2022-09-07T12:30:13.472Z,48.05
2022-09-07T12:32:55.320Z,47.93
2022-09-07T12:35:26.927Z,48.01
2022-09-07T12:38:13.668Z,48.19
2022-09-07T12:40:47.198Z,47.86
2022-09-07T12:43:14.938Z,48.32
2022-09-07T12:45:42.524Z,47.36
2022-09-07T12:48:36.367Z,48.27
2022-09-07T12:55:16.390Z,47.34
2022-09-07T12:57:54.726Z,46.65
2022-09-07T13:00:32.670Z,47.46
2022-09-07T13:09:38.879Z,48.51
2022-09-07T13:12:54.201Z,48.94
2022-09-07T13:15:42.030Z,49.69
2022-09-07T13:18:28.810Z,48.32
2022-09-07T13:21:08.317Z,47.77
2022-09-07T13:23:39.707Z,47.81
2022-09-07T13:26:11.019Z,47.69
2022-09-07T13:28:52.610Z,47.16
2022-09-07T13:31:54.968Z,48.54
2022-09-07T13:34:34.642Z,49.38
2022-09-07T13:37:05.576Z,49.57
2022-09-07T13:39:41.670Z,48.08
2022-09-07T13:42:16.563Z,48.96
2022-09-07T13:44:56.261Z,49.87
2022-09-07T13:47:23.737Z,48.67
2022-09-07T13:50:00.298Z,48.29
2022-09-07T13:53:02.032Z,47.96
2022-09-07T13:55:38.259Z,48.93
2022-09-07T13:58:13.653Z,48.29
2022-09-07T14:01:05.258Z,48.71
2022-09-07T14:03:53.465Z,48.82
2022-09-07T14:06:21.315Z,47.97
2022-09-07T14:08:54.673Z,48.19
2022-09-07T14:11:38.633Z,49.24
2022-09-07T14:14:20.329Z,48.98
2022-09-07T14:16:52.123Z,47.74
2022-09-07T14:19:24.301Z,47.36
2022-09-07T14:22:04.810Z,46.68
2022-09-07T14:24:47.715Z,47.60
2022-09-07T14:27:21.688Z,47.60
2022-09-07T14:29:49.396Z,47.76
2022-09-07T14:32:25.122Z,48.01
2022-09-07T14:34:52.747Z,48.20
2022-09-07T14:37:22.327Z,47.63
2022-09-07T14:39:51.356Z,47.87
2022-09-07T14:42:24.084Z,47.93
2022-09-07T14:45:23.464Z,47.62
2022-09-07T14:47:54.044Z,48.38
2022-09-07T14:50:35.234Z,48.87
2022-09-07T14:56:10.865Z,48.16
2022-09-07T14:58:38.593Z,47.86
2022-09-07T15:04:02.174Z,47.11
2022-09-07T15:09:36.558Z,46.71
2022-09-07T15:12:19.066Z,47.23
2022-09-07T15:14:47.980Z,47.26
2022-09-07T15:20:36.604Z,47.01
2022-09-07T15:23:09.645Z,47.39
2022-09-07T15:25:38.252Z,47.35
2022-09-07T15:28:06.447Z,47.17
2022-09-07T15:30:34.166Z,46.97
2022-09-07T15:33:01.785Z,46.77
2022-09-07T15:35:29.495Z,47.03
2022-09-07T15:38:05.503Z,47.58
2022-09-07T15:41:03.781Z,47.31
2022-09-07T15:43:31.397Z,48.04
2022-09-07T15:45:59.053Z,47.66
2022-09-07T15:48:26.756Z,48.14
2022-09-07T15:51:04.290Z,47.73
2022-09-07T15:56:24.008Z,48.31
2022-09-07T15:58:52.851Z,48.42
2022-09-07T16:04:14.878Z,49.23
2022-09-07T16:06:44.588Z,50.06
2022-09-07T16:09:12.308Z,49.99
2022-09-07T16:11:40.837Z,49.91
2022-09-07T16:14:11.824Z,50.29
2022-09-07T16:19:28.220Z,50.56
2022-09-07T16:21:57.450Z,50.77
2022-09-07T16:24:25.523Z,50.65
2022-09-07T16:26:53.003Z,50.53
2022-09-07T16:29:21.124Z,50.81
2022-09-07T16:34:36.460Z,51.80
2022-09-07T16:37:03.947Z,52.40
2022-09-07T16:39:32.164Z,52.85
2022-09-07T16:42:00.221Z,52.81
2022-09-07T16:44:27.958Z,53.01
2022-09-07T16:46:55.547Z,53.83
2022-09-07T16:49:23.265Z,54.30
2022-09-07T16:51:50.860Z,54.95
2022-09-07T16:54:18.422Z,55.05
2022-09-07T16:56:46.210Z,54.71
2022-09-07T16:59:20.354Z,55.05
2022-09-07T17:01:48.347Z,55.33
2022-09-07T17:04:16.101Z,55.34
2022-09-07T17:06:44.410Z,55.60
2022-09-07T17:09:14.507Z,55.48
2022-09-07T17:11:42.650Z,55.32
2022-09-07T17:14:13.667Z,55.08
2022-09-07T17:16:46.174Z,55.09
2022-09-07T17:19:31.803Z,55.71
2022-09-07T17:22:03.160Z,55.81
2022-09-07T17:24:32.533Z,56.38
2022-09-07T17:27:01.280Z,57.18
2022-09-07T17:29:30.850Z,59.33
2022-09-07T17:34:47.017Z,60.38
2022-09-07T17:37:14.639Z,61.66
2022-09-07T17:39:42.418Z,63.79
2022-09-07T17:42:10.224Z,67.04
2022-09-07T17:44:38.586Z,65.57
2022-09-07T17:47:06.992Z,65.90
2022-09-07T17:49:35.961Z,67.15
2022-09-07T17:52:03.658Z,67.14
2022-09-07T17:54:32.037Z,68.96
2022-09-07T17:56:59.592Z,69.82
2022-09-07T18:02:15.773Z,71.43
2022-09-07T18:04:43.622Z,73.61
2022-09-07T18:07:11.773Z,75.92
2022-09-07T18:09:40.082Z,77.41
2022-09-07T18:12:10.596Z,78.86
2022-09-07T18:14:38.230Z,80.51
2022-09-07T18:17:12.230Z,82.39
2022-09-07T18:19:40.099Z,82.06
2022-09-07T18:22:08.783Z,83.92
2022-09-07T18:24:37.149Z,84.74
2022-09-07T18:27:05.044Z,86.92
2022-09-07T18:29:34.377Z,88.78
2022-09-07T18:32:07.459Z,88.75
2022-09-07T18:34:37.464Z,89.81
2022-09-07T18:37:06.133Z,91.52
2022-09-07T18:39:35.433Z,90.85
2022-09-07T18:42:04.138Z,91.31
2022-09-07T18:47:27.988Z,89.99
2022-09-07T18:49:57.856Z,91.02
2022-09-07T18:55:16.321Z,93.45
2022-09-07T18:57:43.935Z,94.28
2022-09-07T19:00:12.957Z,94.90
2022-09-07T19:02:41.432Z,95.53
2022-09-07T19:07:57.212Z,96.85
2022-09-07T19:10:24.916Z,96.30
2022-09-07T19:12:52.615Z,97.88
2022-09-07T19:15:20.627Z,96.99
2022-09-07T19:17:48.724Z,99.30
2022-09-07T19:20:16.526Z,100.00
2022-09-07T19:22:44.271Z,100.00
2022-09-07T19:25:12.162Z,100.00
2022-09-07T19:27:39.755Z,100.00
2022-09-07T19:30:07.964Z,100.00
2022-09-07T19:32:35.500Z,100.00
2022-09-07T19:35:04.367Z,100.00
2022-09-07T19:37:32.848Z,100.00
2022-09-07T19:40:01.905Z,100.00
2022-09-07T19:42:29.845Z,100.00
2022-09-07T19:44:57.382Z,100.00
2022-09-07T19:47:25.015Z,100.00
2022-09-07T19:49:52.528Z,100.00
2022-09-07T19:52:20.051Z,100.00
2022-09-07T19:54:47.633Z,100.00
2022-09-07T19:57:16.172Z,100.00
2022-09-07T19:59:45.737Z,100.00
2022-09-07T20:02:13.534Z,100.00
2022-09-07T20:04:41.065Z,100.00
2022-09-07T20:07:08.677Z,100.00
2022-09-07T20:09:38.807Z,100.00
2022-09-07T20:12:08.428Z,100.00
2022-09-07T20:14:36.081Z,100.00
2022-09-07T20:17:03.879Z,100.00
2022-09-07T20:19:31.484Z,100.00
2022-09-07T20:21:59.160Z,100.00
2022-09-07T20:24:26.796Z,100.00
2022-09-07T20:26:54.405Z,100.00
2022-09-07T20:29:29.420Z,100.00
2022-09-07T20:31:59.391Z,100.00
2022-09-07T20:34:28.587Z,100.00
2022-09-07T20:36:57.016Z,100.00
2022-09-07T20:39:25.088Z,100.00
2022-09-07T20:41:52.749Z,100.00
2022-09-07T20:44:20.244Z,100.00
2022-09-07T20:46:47.874Z,100.00
2022-09-07T20:49:15.487Z,100.00
2022-09-07T20:51:44.724Z,100.00
2022-09-07T20:54:12.302Z,100.00
2022-09-07T20:56:39.856Z,100.00
2022-09-07T20:59:07.436Z,100.00
2022-09-07T21:01:36.699Z,100.00
2022-09-07T21:04:06.313Z,100.00
2022-09-07T21:06:34.098Z,100.00
2022-09-07T21:09:02.975Z,100.00
2022-09-07T21:11:34.001Z,100.00
2022-09-07T21:14:03.018Z,100.00
2022-09-07T21:16:31.250Z,99.75
2022-09-07T21:19:00.857Z,99.08
2022-09-07T21:21:37.758Z,99.44
2022-09-07T21:24:07.218Z,96.29
2022-09-07T21:26:35.070Z,95.43
2022-09-07T21:29:05.160Z,94.17
2022-09-07T21:31:34.008Z,94.68
2022-09-07T21:34:02.500Z,95.08
2022-09-07T21:36:31.125Z,94.53
2022-09-07T21:38:58.643Z,93.82
2022-09-07T21:41:26.453Z,93.51
2022-09-07T21:44:00.238Z,95.33
2022-09-07T21:46:32.079Z,95.05
2022-09-07T21:49:00.407Z,96.18
2022-09-07T21:51:28.827Z,97.44
2022-09-07T21:54:00.471Z,97.07
2022-09-07T21:56:29.688Z,95.77
2022-09-07T21:59:02.016Z,96.42
2022-09-07T22:01:31.604Z,94.25
2022-09-07T22:04:02.379Z,96.33
2022-09-07T22:06:32.448Z,96.37
2022-09-07T22:09:00.960Z,96.68
2022-09-07T22:11:29.802Z,97.16
2022-09-07T22:14:00.493Z,95.94
2022-09-07T22:16:28.471Z,94.13
2022-09-07T22:18:56.298Z,94.95
2022-09-07T22:21:25.877Z,91.72
2022-09-07T22:23:57.022Z,90.30
2022-09-07T22:26:26.710Z,90.55
2022-09-07T22:28:55.284Z,89.45
2022-09-07T22:31:28.865Z,89.36
2022-09-07T22:33:57.713Z,90.51
2022-09-07T22:36:28.226Z,87.91
2022-09-07T22:39:01.278Z,90.34
2022-09-07T22:41:31.697Z,91.30
2022-09-07T22:43:59.866Z,91.51
2022-09-07T22:46:29.994Z,90.75
2022-09-07T22:48:58.644Z,90.76
2022-09-07T22:51:27.224Z,89.55
2022-09-07T22:53:55.559Z,88.82
2022-09-07T22:56:29.349Z,88.65
2022-09-07T22:59:02.231Z,88.61
2022-09-07T23:01:31.754Z,86.54
2022-09-07T23:04:00.189Z,90.74
2022-09-07T23:06:27.847Z,86.59
2022-09-07T23:08:57.461Z,86.33
2022-09-07T23:11:25.740Z,85.49
2022-09-07T23:13:56.107Z,83.73
2022-09-07T23:16:24.066Z,81.59
2022-09-07T23:18:51.944Z,80.73
2022-09-07T23:21:19.808Z,79.22
2022-09-07T23:23:52.317Z,78.47
2022-09-07T23:26:22.078Z,78.55
2022-09-07T23:28:55.053Z,78.85
2022-09-07T23:31:24.075Z,78.77
2022-09-07T23:33:51.891Z,77.96
2022-09-07T23:36:19.826Z,77.74
2022-09-07T23:38:48.099Z,77.42
2022-09-07T23:41:19.927Z,77.15
2022-09-07T23:43:48.483Z,76.97
2022-09-07T23:46:16.703Z,77.39
2022-09-07T23:48:45.508Z,78.97
2022-09-07T23:51:14.443Z,78.63
2022-09-07T23:53:42.586Z,77.47
2022-09-07T23:56:10.228Z,76.99
2022-09-07T23:58:39.687Z,77.21
